sensor_id;sensor_type;location;lat;lon;timestamp;temperature;humidity
3466;DHT22;1747;48.884;9.160;2023-04-03T00:01:27;6.00;99.90
3466;DHT22;1747;48.884;9.160;2023-04-03T00:03:54;6.00;99.90
3466;DHT22;1747;48.884;9.160;2023-04-03T00:06:21;6.00;99.90
3466;DHT22;1747;48.884;9.160;2023-04-03T00:08:48;6.00;99.90
3466;DHT22;1747;48.884;9.160;2023-04-03T00:11:16;6.00;99.90
3466;DHT22;1747;48.884;9.160;2023-04-03T00:13:44;5.90;99.90
3466;DHT22;1747;48.884;9.160;2023-04-03T00:16:11;6.00;99.90
3466;DHT22;1747;48.884;9.160;2023-04-03T00:18:39;6.00;99.90
3466;DHT22;1747;48.884;9.160;2023-04-03T00:21:06;5.90;99.90
3466;DHT22;1747;48.884;9.160;2023-04-03T00:23:33;5.90;99.90
3466;DHT22;1747;48.884;9.160;2023-04-03T00:26:00;5.90;99.90
3466;DHT22;1747;48.884;9.160;2023-04-03T00:28:27;5.80;99.90
3466;DHT22;1747;48.884;9.160;2023-04-03T00:30:55;5.90;99.90
3466;DHT22;1747;48.884;9.160;2023-04-03T00:33:22;5.80;99.90
3466;DHT22;1747;48.884;9.160;2023-04-03T00:35:50;5.80;99.90
3466;DHT22;1747;48.884;9.160;2023-04-03T00:38:17;5.80;99.90
3466;DHT22;1747;48.884;9.160;2023-04-03T00:40:46;5.90;99.90
3466;DHT22;1747;48.884;9.160;2023-04-03T00:43:15;5.80;99.90
3466;DHT22;1747;48.884;9.160;2023-04-03T00:45:43;5.80;99.90
3466;DHT22;1747;48.884;9.160;2023-04-03T00:48:14;5.80;99.90
3466;DHT22;1747;48.884;9.160;2023-04-03T00:50:43;5.80;99.90
3466;DHT22;1747;48.884;9.160;2023-04-03T00:53:12;5.70;99.90
3466;DHT22;1747;48.884;9.160;2023-04-03T00:55:41;5.70;99.90
3466;DHT22;1747;48.884;9.160;2023-04-03T00:58:08;5.70;99.90
3466;DHT22;1747;48.884;9.160;2023-04-03T01:00:37;5.70;99.90
3466;DHT22;1747;48.884;9.160;2023-04-03T01:03:07;5.60;99.90
3466;DHT22;1747;48.884;9.160;2023-04-03T01:05:35;5.70;99.90
3466;DHT22;1747;48.884;9.160;2023-04-03T01:08:02;5.80;99.90
3466;DHT22;1747;48.884;9.160;2023-04-03T01:10:29;5.80;99.90
3466;DHT22;1747;48.884;9.160;2023-04-03T01:12:56;5.70;99.90
3466;DHT22;1747;48.884;9.160;2023-04-03T01:15:24;5.70;99.90
3466;DHT22;1747;48.884;9.160;2023-04-03T01:17:53;5.70;99.90
3466;DHT22;1747;48.884;9.160;2023-04-03T01:20:50;5.70;99.90
3466;DHT22;1747;48.884;9.160;2023-04-03T01:23:32;5.60;99.90
3466;DHT22;1747;48.884;9.160;2023-04-03T01:26:00;5.60;99.90
3466;DHT22;1747;48.884;9.160;2023-04-03T01:28:30;5.70;99.90
3466;DHT22;1747;48.884;9.160;2023-04-03T01:31:04;5.60;99.90
3466;DHT22;1747;48.884;9.160;2023-04-03T01:33:35;5.60;99.90
3466;DHT22;1747;48.884;9.160;2023-04-03T01:36:02;5.60;99.90
3466;DHT22;1747;48.884;9.160;2023-04-03T01:38:29;5.60;99.90
3466;DHT22;1747;48.884;9.160;2023-04-03T01:40:56;5.50;99.90
3466;DHT22;1747;48.884;9.160;2023-04-03T01:43:23;5.50;99.90
3466;DHT22;1747;48.884;9.160;2023-04-03T01:45:50;5.50;99.90
3466;DHT22;1747;48.884;9.160;2023-04-03T01:48:20;5.50;99.90
3466;DHT22;1747;48.884;9.160;2023-04-03T01:50:48;5.40;99.90
3466;DHT22;1747;48.884;9.160;2023-04-03T01:53:15;5.40;99.90
3466;DHT22;1747;48.884;9.160;2023-04-03T01:55:41;5.40;99.90
3466;DHT22;1747;48.884;9.160;2023-04-03T01:58:08;5.50;99.90
3466;DHT22;1747;48.884;9.160;2023-04-03T02:00:35;5.50;99.90
3466;DHT22;1747;48.884;9.160;2023-04-03T02:03:02;5.40;99.90
3466;DHT22;1747;48.884;9.160;2023-04-03T02:05:29;5.50;99.90
3466;DHT22;1747;48.884;9.160;2023-04-03T02:07:57;5.50;99.90
3466;DHT22;1747;48.884;9.160;2023-04-03T02:10:24;5.50;99.90
3466;DHT22;1747;48.884;9.160;2023-04-03T02:12:51;5.50;99.90
3466;DHT22;1747;48.884;9.160;2023-04-03T02:15:18;5.50;99.90
3466;DHT22;1747;48.884;9.160;2023-04-03T02:17:45;5.40;99.90
3466;DHT22;1747;48.884;9.160;2023-04-03T02:20:12;5.40;99.90
3466;DHT22;1747;48.884;9.160;2023-04-03T02:22:39;5.40;99.90
3466;DHT22;1747;48.884;9.160;2023-04-03T02:25:08;5.40;99.90
3466;DHT22;1747;48.884;9.160;2023-04-03T02:27:35;5.40;99.90
3466;DHT22;1747;48.884;9.160;2023-04-03T02:30:02;5.40;99.90
3466;DHT22;1747;48.884;9.160;2023-04-03T02:32:28;5.50;99.90
3466;DHT22;1747;48.884;9.160;2023-04-03T02:34:55;5.40;99.90
3466;DHT22;1747;48.884;9.160;2023-04-03T02:37:22;5.40;99.90
3466;DHT22;1747;48.884;9.160;2023-04-03T02:39:49;5.50;99.90
3466;DHT22;1747;48.884;9.160;2023-04-03T02:42:17;5.50;99.90
3466;DHT22;1747;48.884;9.160;2023-04-03T02:44:44;5.40;99.90
3466;DHT22;1747;48.884;9.160;2023-04-03T02:47:11;5.40;99.90
3466;DHT22;1747;48.884;9.160;2023-04-03T02:49:38;5.40;99.90
3466;DHT22;1747;48.884;9.160;2023-04-03T02:52:04;5.40;99.90
3466;DHT22;1747;48.884;9.160;2023-04-03T02:54:31;5.50;99.90
3466;DHT22;1747;48.884;9.160;2023-04-03T02:56:58;5.50;99.90
3466;DHT22;1747;48.884;9.160;2023-04-03T02:59:26;5.50;99.90
3466;DHT22;1747;48.884;9.160;2023-04-03T03:01:53;5.50;99.90
3466;DHT22;1747;48.884;9.160;2023-04-03T03:04:21;5.50;99.90
3466;DHT22;1747;48.884;9.160;2023-04-03T03:06:48;5.50;99.90
3466;DHT22;1747;48.884;9.160;2023-04-03T03:09:14;5.40;99.90
3466;DHT22;1747;48.884;9.160;2023-04-03T03:11:42;5.50;99.90
3466;DHT22;1747;48.884;9.160;2023-04-03T03:14:09;5.50;99.90
3466;DHT22;1747;48.884;9.160;2023-04-03T03:16:37;5.40;99.90
3466;DHT22;1747;48.884;9.160;2023-04-03T03:19:03;5.40;99.90
3466;DHT22;1747;48.884;9.160;2023-04-03T03:21:32;5.40;99.90
3466;DHT22;1747;48.884;9.160;2023-04-03T03:23:58;5.40;99.90
3466;DHT22;1747;48.884;9.160;2023-04-03T03:26:25;5.40;99.90
3466;DHT22;1747;48.884;9.160;2023-04-03T03:28:52;5.50;99.90
3466;DHT22;1747;48.884;9.160;2023-04-03T03:31:19;5.50;99.90
3466;DHT22;1747;48.884;9.160;2023-04-03T03:33:47;5.50;99.90
3466;DHT22;1747;48.884;9.160;2023-04-03T03:36:14;5.50;99.90
3466;DHT22;1747;48.884;9.160;2023-04-03T03:38:40;5.50;99.90
3466;DHT22;1747;48.884;9.160;2023-04-03T03:41:07;5.40;99.90
3466;DHT22;1747;48.884;9.160;2023-04-03T03:43:34;5.50;99.90
3466;DHT22;1747;48.884;9.160;2023-04-03T03:46:01;5.50;99.90
3466;DHT22;1747;48.884;9.160;2023-04-03T03:48:28;5.50;99.90
3466;DHT22;1747;48.884;9.160;2023-04-03T03:50:56;5.50;99.90
3466;DHT22;1747;48.884;9.160;2023-04-03T03:53:23;5.60;99.90
3466;DHT22;1747;48.884;9.160;2023-04-03T03:55:49;5.60;99.90
3466;DHT22;1747;48.884;9.160;2023-04-03T03:58:16;5.60;99.90
3466;DHT22;1747;48.884;9.160;2023-04-03T04:00:43;5.50;99.90
3466;DHT22;1747;48.884;9.160;2023-04-03T04:03:10;5.50;99.90
3466;DHT22;1747;48.884;9.160;2023-04-03T04:05:36;5.50;99.90
3466;DHT22;1747;48.884;9.160;2023-04-03T04:08:05;5.50;99.90
3466;DHT22;1747;48.884;9.160;2023-04-03T04:10:32;5.60;99.90
3466;DHT22;1747;48.884;9.160;2023-04-03T04:12:59;5.50;99.90
3466;DHT22;1747;48.884;9.160;2023-04-03T04:15:26;5.50;99.90
3466;DHT22;1747;48.884;9.160;2023-04-03T04:17:52;5.50;99.90
3466;DHT22;1747;48.884;9.160;2023-04-03T04:20:19;5.50;99.90
3466;DHT22;1747;48.884;9.160;2023-04-03T04:22:46;5.50;99.90
3466;DHT22;1747;48.884;9.160;2023-04-03T04:25:14;5.50;99.90
3466;DHT22;1747;48.884;9.160;2023-04-03T04:27:41;5.50;99.90
3466;DHT22;1747;48.884;9.160;2023-04-03T04:30:10;5.50;99.90
3466;DHT22;1747;48.884;9.160;2023-04-03T04:32:37;5.50;99.90
3466;DHT22;1747;48.884;9.160;2023-04-03T04:35:04;5.40;99.90
3466;DHT22;1747;48.884;9.160;2023-04-03T04:37:31;5.50;99.90
3466;DHT22;1747;48.884;9.160;2023-04-03T04:39:58;5.40;99.90
3466;DHT22;1747;48.884;9.160;2023-04-03T04:42:26;5.50;99.90
3466;DHT22;1747;48.884;9.160;2023-04-03T04:44:53;5.40;99.90
3466;DHT22;1747;48.884;9.160;2023-04-03T04:47:20;5.40;99.90
3466;DHT22;1747;48.884;9.160;2023-04-03T04:49:47;5.40;99.90
3466;DHT22;1747;48.884;9.160;2023-04-03T04:52:14;5.40;99.90
3466;DHT22;1747;48.884;9.160;2023-04-03T04:54:40;5.40;99.90
3466;DHT22;1747;48.884;9.160;2023-04-03T04:57:07;5.40;99.90
3466;DHT22;1747;48.884;9.160;2023-04-03T04:59:37;5.40;99.90
3466;DHT22;1747;48.884;9.160;2023-04-03T05:02:04;5.40;99.90
3466;DHT22;1747;48.884;9.160;2023-04-03T05:04:30;5.40;99.90
3466;DHT22;1747;48.884;9.160;2023-04-03T05:06:58;5.40;99.90
3466;DHT22;1747;48.884;9.160;2023-04-03T05:09:25;5.40;99.90
3466;DHT22;1747;48.884;9.160;2023-04-03T05:11:52;5.30;99.90
3466;DHT22;1747;48.884;9.160;2023-04-03T05:14:19;5.40;99.90
3466;DHT22;1747;48.884;9.160;2023-04-03T05:16:47;5.40;99.90
3466;DHT22;1747;48.884;9.160;2023-04-03T05:19:18;5.40;99.90
3466;DHT22;1747;48.884;9.160;2023-04-03T05:21:45;5.40;99.90
3466;DHT22;1747;48.884;9.160;2023-04-03T05:24:12;5.40;99.90
3466;DHT22;1747;48.884;9.160;2023-04-03T05:26:38;5.40;99.90
3466;DHT22;1747;48.884;9.160;2023-04-03T05:29:06;5.30;99.90
3466;DHT22;1747;48.884;9.160;2023-04-03T05:31:32;5.30;99.90
3466;DHT22;1747;48.884;9.160;2023-04-03T05:34:01;5.40;99.90
3466;DHT22;1747;48.884;9.160;2023-04-03T05:36:28;5.40;99.90
3466;DHT22;1747;48.884;9.160;2023-04-03T05:38:54;5.40;99.90
3466;DHT22;1747;48.884;9.160;2023-04-03T05:41:22;5.40;99.90
3466;DHT22;1747;48.884;9.160;2023-04-03T05:43:49;5.40;99.90
3466;DHT22;1747;48.884;9.160;2023-04-03T05:46:17;5.40;99.90
3466;DHT22;1747;48.884;9.160;2023-04-03T05:48:45;5.40;99.90
3466;DHT22;1747;48.884;9.160;2023-04-03T05:51:16;5.40;99.90
3466;DHT22;1747;48.884;9.160;2023-04-03T05:53:44;5.40;99.90
3466;DHT22;1747;48.884;9.160;2023-04-03T05:56:12;5.40;99.90
3466;DHT22;1747;48.884;9.160;2023-04-03T05:58:39;5.40;99.90
3466;DHT22;1747;48.884;9.160;2023-04-03T06:01:05;5.40;99.90
3466;DHT22;1747;48.884;9.160;2023-04-03T06:03:33;5.40;99.90
3466;DHT22;1747;48.884;9.160;2023-04-03T06:06:02;5.50;99.90
3466;DHT22;1747;48.884;9.160;2023-04-03T06:08:31;5.50;99.90
3466;DHT22;1747;48.884;9.160;2023-04-03T06:10:58;5.50;99.90
3466;DHT22;1747;48.884;9.160;2023-04-03T06:13:25;5.50;99.90
3466;DHT22;1747;48.884;9.160;2023-04-03T06:15:52;5.50;99.90
3466;DHT22;1747;48.884;9.160;2023-04-03T06:18:18;5.50;99.90
3466;DHT22;1747;48.884;9.160;2023-04-03T06:20:46;5.50;99.90
3466;DHT22;1747;48.884;9.160;2023-04-03T06:23:12;5.50;99.90
3466;DHT22;1747;48.884;9.160;2023-04-03T06:25:40;5.60;99.90
3466;DHT22;1747;48.884;9.160;2023-04-03T06:28:08;5.60;99.90
3466;DHT22;1747;48.884;9.160;2023-04-03T06:30:35;5.60;99.90
3466;DHT22;1747;48.884;9.160;2023-04-03T06:33:02;5.60;99.90
3466;DHT22;1747;48.884;9.160;2023-04-03T06:35:29;5.70;99.90
3466;DHT22;1747;48.884;9.160;2023-04-03T06:37:56;5.60;99.90
3466;DHT22;1747;48.884;9.160;2023-04-03T06:40:25;5.70;99.90
3466;DHT22;1747;48.884;9.160;2023-04-03T06:42:54;5.80;99.90
3466;DHT22;1747;48.884;9.160;2023-04-03T06:45:20;5.80;99.90
3466;DHT22;1747;48.884;9.160;2023-04-03T06:47:47;5.80;99.90
3466;DHT22;1747;48.884;9.160;2023-04-03T06:50:14;5.80;99.90
3466;DHT22;1747;48.884;9.160;2023-04-03T06:52:41;5.80;99.90
3466;DHT22;1747;48.884;9.160;2023-04-03T06:55:09;5.90;99.90
3466;DHT22;1747;48.884;9.160;2023-04-03T06:57:36;5.90;99.90
3466;DHT22;1747;48.884;9.160;2023-04-03T07:00:08;6.00;99.90
3466;DHT22;1747;48.884;9.160;2023-04-03T07:02:36;6.00;99.90
3466;DHT22;1747;48.884;9.160;2023-04-03T07:05:03;6.10;99.90
3466;DHT22;1747;48.884;9.160;2023-04-03T07:07:31;6.10;99.90
3466;DHT22;1747;48.884;9.160;2023-04-03T07:09:59;6.10;99.90
3466;DHT22;1747;48.884;9.160;2023-04-03T07:12:26;6.10;99.90
3466;DHT22;1747;48.884;9.160;2023-04-03T07:14:53;6.10;99.90
3466;DHT22;1747;48.884;9.160;2023-04-03T07:17:21;6.20;99.90
3466;DHT22;1747;48.884;9.160;2023-04-03T07:19:48;6.30;99.90
3466;DHT22;1747;48.884;9.160;2023-04-03T07:22:15;6.30;99.90
3466;DHT22;1747;48.884;9.160;2023-04-03T07:24:42;6.30;99.90
3466;DHT22;1747;48.884;9.160;2023-04-03T07:27:09;6.40;99.90
3466;DHT22;1747;48.884;9.160;2023-04-03T07:29:38;6.40;99.90
3466;DHT22;1747;48.884;9.160;2023-04-03T07:32:05;6.40;99.90
3466;DHT22;1747;48.884;9.160;2023-04-03T07:34:34;6.40;99.90
3466;DHT22;1747;48.884;9.160;2023-04-03T07:37:01;6.40;99.90
3466;DHT22;1747;48.884;9.160;2023-04-03T07:39:28;6.50;99.90
3466;DHT22;1747;48.884;9.160;2023-04-03T07:41:55;6.70;99.90
3466;DHT22;1747;48.884;9.160;2023-04-03T07:44:22;6.70;99.90
3466;DHT22;1747;48.884;9.160;2023-04-03T07:46:49;6.80;99.90
3466;DHT22;1747;48.884;9.160;2023-04-03T07:49:16;6.80;99.90
3466;DHT22;1747;48.884;9.160;2023-04-03T07:51:44;7.00;99.90
3466;DHT22;1747;48.884;9.160;2023-04-03T07:54:12;7.10;99.90
3466;DHT22;1747;48.884;9.160;2023-04-03T07:56:39;7.20;99.90
3466;DHT22;1747;48.884;9.160;2023-04-03T07:59:05;7.20;99.90
3466;DHT22;1747;48.884;9.160;2023-04-03T08:01:33;7.20;99.90
3466;DHT22;1747;48.884;9.160;2023-04-03T08:04:00;7.20;99.90
3466;DHT22;1747;48.884;9.160;2023-04-03T08:06:27;7.20;99.90
3466;DHT22;1747;48.884;9.160;2023-04-03T08:08:56;7.20;99.90
3466;DHT22;1747;48.884;9.160;2023-04-03T08:11:22;7.30;99.90
3466;DHT22;1747;48.884;9.160;2023-04-03T08:13:52;7.40;99.90
3466;DHT22;1747;48.884;9.160;2023-04-03T08:16:21;7.50;99.90
3466;DHT22;1747;48.884;9.160;2023-04-03T08:18:48;7.50;99.90
3466;DHT22;1747;48.884;9.160;2023-04-03T08:21:16;7.50;99.90
3466;DHT22;1747;48.884;9.160;2023-04-03T08:23:43;7.50;99.90
3466;DHT22;1747;48.884;9.160;2023-04-03T08:26:13;7.40;99.90
3466;DHT22;1747;48.884;9.160;2023-04-03T08:28:40;7.50;99.90
3466;DHT22;1747;48.884;9.160;2023-04-03T08:31:10;7.50;99.90
3466;DHT22;1747;48.884;9.160;2023-04-03T08:33:38;7.60;99.90
3466;DHT22;1747;48.884;9.160;2023-04-03T08:36:06;7.60;99.90
3466;DHT22;1747;48.884;9.160;2023-04-03T08:38:34;7.50;99.90
3466;DHT22;1747;48.884;9.160;2023-04-03T08:41:13;7.50;99.90
3466;DHT22;1747;48.884;9.160;2023-04-03T08:43:53;7.60;99.90
3466;DHT22;1747;48.884;9.160;2023-04-03T08:46:24;7.60;99.90
3466;DHT22;1747;48.884;9.160;2023-04-03T08:48:55;7.70;99.90
3466;DHT22;1747;48.884;9.160;2023-04-03T08:51:26;7.70;99.90
3466;DHT22;1747;48.884;9.160;2023-04-03T08:53:58;7.80;99.90
3466;DHT22;1747;48.884;9.160;2023-04-03T08:56:29;8.00;99.90
3466;DHT22;1747;48.884;9.160;2023-04-03T08:58:59;8.10;99.90
3466;DHT22;1747;48.884;9.160;2023-04-03T09:01:30;8.00;99.90
3466;DHT22;1747;48.884;9.160;2023-04-03T09:04:00;8.10;99.90
3466;DHT22;1747;48.884;9.160;2023-04-03T09:06:31;8.20;99.90
3466;DHT22;1747;48.884;9.160;2023-04-03T09:09:09;8.00;99.90
3466;DHT22;1747;48.884;9.160;2023-04-03T09:11:47;8.30;99.90
3466;DHT22;1747;48.884;9.160;2023-04-03T09:14:23;8.50;99.90
3466;DHT22;1747;48.884;9.160;2023-04-03T09:16:55;8.70;99.90
3466;DHT22;1747;48.884;9.160;2023-04-03T09:19:35;8.70;99.90
3466;DHT22;1747;48.884;9.160;2023-04-03T09:22:13;8.80;99.90
3466;DHT22;1747;48.884;9.160;2023-04-03T09:24:44;8.80;99.90
3466;DHT22;1747;48.884;9.160;2023-04-03T09:27:13;8.80;99.90
3466;DHT22;1747;48.884;9.160;2023-04-03T09:29:41;8.80;99.90
3466;DHT22;1747;48.884;9.160;2023-04-03T09:32:26;8.80;99.90
3466;DHT22;1747;48.884;9.160;2023-04-03T09:34:55;8.80;99.90
3466;DHT22;1747;48.884;9.160;2023-04-03T09:37:36;8.90;99.90
3466;DHT22;1747;48.884;9.160;2023-04-03T09:40:04;8.90;99.90
3466;DHT22;1747;48.884;9.160;2023-04-03T09:42:40;9.00;99.90
3466;DHT22;1747;48.884;9.160;2023-04-03T09:45:22;9.10;99.90
3466;DHT22;1747;48.884;9.160;2023-04-03T09:48:04;9.10;99.90
3466;DHT22;1747;48.884;9.160;2023-04-03T09:50:32;9.10;99.90
3466;DHT22;1747;48.884;9.160;2023-04-03T09:53:05;9.10;99.00
3466;DHT22;1747;48.884;9.160;2023-04-03T09:55:42;9.10;99.60
3466;DHT22;1747;48.884;9.160;2023-04-03T09:58:24;9.00;99.70
3466;DHT22;1747;48.884;9.160;2023-04-03T10:00:55;9.00;99.60
3466;DHT22;1747;48.884;9.160;2023-04-03T10:03:27;8.80;99.10
3466;DHT22;1747;48.884;9.160;2023-04-03T10:05:54;8.70;99.90
3466;DHT22;1747;48.884;9.160;2023-04-03T10:08:26;8.80;99.90
3466;DHT22;1747;48.884;9.160;2023-04-03T10:11:08;8.90;99.90
3466;DHT22;1747;48.884;9.160;2023-04-03T10:13:49;9.10;99.30
3466;DHT22;1747;48.884;9.160;2023-04-03T10:16:20;9.20;98.40
3466;DHT22;1747;48.884;9.160;2023-04-03T10:18:54;9.20;98.30
3466;DHT22;1747;48.884;9.160;2023-04-03T10:21:32;9.30;97.80
3466;DHT22;1747;48.884;9.160;2023-04-03T10:24:08;9.20;98.30
3466;DHT22;1747;48.884;9.160;2023-04-03T10:26:44;9.20;98.20
3466;DHT22;1747;48.884;9.160;2023-04-03T10:29:25;9.20;97.10
3466;DHT22;1747;48.884;9.160;2023-04-03T10:31:59;9.20;97.40
3466;DHT22;1747;48.884;9.160;2023-04-03T10:34:33;9.20;97.90
3466;DHT22;1747;48.884;9.160;2023-04-03T10:37:09;9.40;96.10
3466;DHT22;1747;48.884;9.160;2023-04-03T10:39:46;9.40;96.00
3466;DHT22;1747;48.884;9.160;2023-04-03T10:42:21;9.50;96.80
3466;DHT22;1747;48.884;9.160;2023-04-03T10:45:17;9.50;95.80
3466;DHT22;1747;48.884;9.160;2023-04-03T10:47:50;9.50;95.50
3466;DHT22;1747;48.884;9.160;2023-04-03T10:50:28;9.60;94.80
3466;DHT22;1747;48.884;9.160;2023-04-03T10:53:04;9.60;94.70
3466;DHT22;1747;48.884;9.160;2023-04-03T10:55:37;9.60;94.30
3466;DHT22;1747;48.884;9.160;2023-04-03T10:58:06;9.60;94.30
3466;DHT22;1747;48.884;9.160;2023-04-03T11:00:40;9.60;94.50
3466;DHT22;1747;48.884;9.160;2023-04-03T11:03:16;9.40;94.40
3466;DHT22;1747;48.884;9.160;2023-04-03T11:05:52;9.40;94.90
3466;DHT22;1747;48.884;9.160;2023-04-03T11:08:26;9.40;94.40
3466;DHT22;1747;48.884;9.160;2023-04-03T11:10:56;9.40;93.90
3466;DHT22;1747;48.884;9.160;2023-04-03T11:13:28;9.30;93.70
3466;DHT22;1747;48.884;9.160;2023-04-03T11:15:58;9.40;94.30
3466;DHT22;1747;48.884;9.160;2023-04-03T11:18:27;9.50;93.30
3466;DHT22;1747;48.884;9.160;2023-04-03T11:21:00;9.50;93.10
3466;DHT22;1747;48.884;9.160;2023-04-03T11:23:32;9.60;93.70
3466;DHT22;1747;48.884;9.160;2023-04-03T11:26:10;9.50;93.90
3466;DHT22;1747;48.884;9.160;2023-04-03T11:28:38;9.60;94.00
3466;DHT22;1747;48.884;9.160;2023-04-03T11:31:15;9.60;93.20
3466;DHT22;1747;48.884;9.160;2023-04-03T11:33:54;9.50;92.90
3466;DHT22;1747;48.884;9.160;2023-04-03T11:36:24;9.40;93.70
3466;DHT22;1747;48.884;9.160;2023-04-03T11:38:55;9.50;93.80
3466;DHT22;1747;48.884;9.160;2023-04-03T11:41:26;9.50;93.70
3466;DHT22;1747;48.884;9.160;2023-04-03T11:43:59;9.40;94.40
3466;DHT22;1747;48.884;9.160;2023-04-03T11:46:51;9.40;94.00
3466;DHT22;1747;48.884;9.160;2023-04-03T11:49:51;9.40;94.90
3466;DHT22;1747;48.884;9.160;2023-04-03T11:58:25;9.20;94.70
3466;DHT22;1747;48.884;9.160;2023-04-03T12:01:05;9.20;94.60
3466;DHT22;1747;48.884;9.160;2023-04-03T12:04:03;9.20;94.10
3466;DHT22;1747;48.884;9.160;2023-04-03T12:10:02;9.30;92.70
3466;DHT22;1747;48.884;9.160;2023-04-03T12:12:37;9.30;93.00
3466;DHT22;1747;48.884;9.160;2023-04-03T12:15:22;9.30;93.10
3466;DHT22;1747;48.884;9.160;2023-04-03T12:17:50;9.30;94.10
3466;DHT22;1747;48.884;9.160;2023-04-03T12:20:53;9.30;93.60
3466;DHT22;1747;48.884;9.160;2023-04-03T12:23:25;9.50;93.30
3466;DHT22;1747;48.884;9.160;2023-04-03T12:26:00;9.60;92.70
3466;DHT22;1747;48.884;9.160;2023-04-03T12:28:28;9.70;92.90
3466;DHT22;1747;48.884;9.160;2023-04-03T12:30:56;10.10;92.30
3466;DHT22;1747;48.884;9.160;2023-04-03T12:33:36;10.30;91.20
3466;DHT22;1747;48.884;9.160;2023-04-03T12:36:10;10.30;92.60
3466;DHT22;1747;48.884;9.160;2023-04-03T12:38:58;10.30;92.20
3466;DHT22;1747;48.884;9.160;2023-04-03T12:41:38;10.30;92.20
3466;DHT22;1747;48.884;9.160;2023-04-03T12:44:40;10.30;91.00
3466;DHT22;1747;48.884;9.160;2023-04-03T12:47:23;10.30;90.70
3466;DHT22;1747;48.884;9.160;2023-04-03T12:49:51;10.40;91.50
3466;DHT22;1747;48.884;9.160;2023-04-03T12:52:37;10.50;92.30
3466;DHT22;1747;48.884;9.160;2023-04-03T12:55:17;10.60;91.00
3466;DHT22;1747;48.884;9.160;2023-04-03T12:57:44;10.60;90.30
3466;DHT22;1747;48.884;9.160;2023-04-03T13:00:32;10.70;89.70
3466;DHT22;1747;48.884;9.160;2023-04-03T13:03:01;10.50;91.40
3466;DHT22;1747;48.884;9.160;2023-04-03T13:05:29;10.40;91.40
3466;DHT22;1747;48.884;9.160;2023-04-03T13:08:00;10.20;90.90
3466;DHT22;1747;48.884;9.160;2023-04-03T13:10:29;10.30;91.50
3466;DHT22;1747;48.884;9.160;2023-04-03T13:12:58;10.10;90.70
3466;DHT22;1747;48.884;9.160;2023-04-03T13:15:27;10.10;91.80
3466;DHT22;1747;48.884;9.160;2023-04-03T13:17:55;10.10;91.70
3466;DHT22;1747;48.884;9.160;2023-04-03T13:20:25;10.00;91.50
3466;DHT22;1747;48.884;9.160;2023-04-03T13:22:58;10.00;91.10
3466;DHT22;1747;48.884;9.160;2023-04-03T13:25:28;10.00;91.00
3466;DHT22;1747;48.884;9.160;2023-04-03T13:27:57;9.90;91.50
3466;DHT22;1747;48.884;9.160;2023-04-03T13:30:30;10.00;91.40
3466;DHT22;1747;48.884;9.160;2023-04-03T13:33:00;10.10;91.20
3466;DHT22;1747;48.884;9.160;2023-04-03T13:35:30;10.10;91.50
3466;DHT22;1747;48.884;9.160;2023-04-03T13:38:02;10.10;90.80
3466;DHT22;1747;48.884;9.160;2023-04-03T13:40:30;10.20;91.30
3466;DHT22;1747;48.884;9.160;2023-04-03T13:43:06;10.30;91.00
3466;DHT22;1747;48.884;9.160;2023-04-03T13:45:34;10.40;91.40
3466;DHT22;1747;48.884;9.160;2023-04-03T13:48:10;10.60;90.50
3466;DHT22;1747;48.884;9.160;2023-04-03T13:50:54;10.80;91.00
3466;DHT22;1747;48.884;9.160;2023-04-03T13:53:23;11.10;88.40
3466;DHT22;1747;48.884;9.160;2023-04-03T13:55:57;11.30;89.00
3466;DHT22;1747;48.884;9.160;2023-04-03T13:58:25;11.40;86.80
3466;DHT22;1747;48.884;9.160;2023-04-03T14:00:54;11.50;87.30
3466;DHT22;1747;48.884;9.160;2023-04-03T14:03:24;11.40;85.50
3466;DHT22;1747;48.884;9.160;2023-04-03T14:05:52;11.30;85.20
3466;DHT22;1747;48.884;9.160;2023-04-03T14:08:19;11.20;84.40
3466;DHT22;1747;48.884;9.160;2023-04-03T14:10:47;11.00;84.80
3466;DHT22;1747;48.884;9.160;2023-04-03T14:13:17;11.00;85.90
3466;DHT22;1747;48.884;9.160;2023-04-03T14:15:44;10.90;84.40
3466;DHT22;1747;48.884;9.160;2023-04-03T14:18:14;10.80;84.20
3466;DHT22;1747;48.884;9.160;2023-04-03T14:20:41;10.90;84.20
3466;DHT22;1747;48.884;9.160;2023-04-03T14:23:09;10.90;82.90
3466;DHT22;1747;48.884;9.160;2023-04-03T14:25:36;10.80;82.60
3466;DHT22;1747;48.884;9.160;2023-04-03T14:28:15;11.00;84.30
3466;DHT22;1747;48.884;9.160;2023-04-03T14:30:43;11.80;84.00
3466;DHT22;1747;48.884;9.160;2023-04-03T14:33:14;12.50;81.40
3466;DHT22;1747;48.884;9.160;2023-04-03T14:35:41;12.70;79.70
3466;DHT22;1747;48.884;9.160;2023-04-03T14:38:21;12.50;78.10
3466;DHT22;1747;48.884;9.160;2023-04-03T14:40:48;12.10;79.40
3466;DHT22;1747;48.884;9.160;2023-04-03T14:43:16;11.90;78.80
3466;DHT22;1747;48.884;9.160;2023-04-03T14:45:43;11.70;78.20
3466;DHT22;1747;48.884;9.160;2023-04-03T14:48:15;12.00;77.40
3466;DHT22;1747;48.884;9.160;2023-04-03T14:50:43;12.40;77.20
3466;DHT22;1747;48.884;9.160;2023-04-03T14:53:12;12.40;76.90
3466;DHT22;1747;48.884;9.160;2023-04-03T14:55:40;12.30;77.50
3466;DHT22;1747;48.884;9.160;2023-04-03T14:58:11;12.10;77.70
3466;DHT22;1747;48.884;9.160;2023-04-03T15:00:39;11.90;76.60
3466;DHT22;1747;48.884;9.160;2023-04-03T15:03:12;11.70;78.60
3466;DHT22;1747;48.884;9.160;2023-04-03T15:05:39;11.40;77.70
3466;DHT22;1747;48.884;9.160;2023-04-03T15:08:16;11.10;78.90
3466;DHT22;1747;48.884;9.160;2023-04-03T15:10:44;10.90;79.60
3466;DHT22;1747;48.884;9.160;2023-04-03T15:13:12;11.00;80.20
3466;DHT22;1747;48.884;9.160;2023-04-03T15:15:41;11.30;77.60
3466;DHT22;1747;48.884;9.160;2023-04-03T15:18:14;11.60;76.40
3466;DHT22;1747;48.884;9.160;2023-04-03T15:20:42;11.90;75.10
3466;DHT22;1747;48.884;9.160;2023-04-03T15:23:10;12.00;74.80
3466;DHT22;1747;48.884;9.160;2023-04-03T15:25:38;11.90;75.70
3466;DHT22;1747;48.884;9.160;2023-04-03T15:28:05;11.70;76.90
3466;DHT22;1747;48.884;9.160;2023-04-03T15:30:33;11.50;75.20
3466;DHT22;1747;48.884;9.160;2023-04-03T15:33:04;11.20;75.40
3466;DHT22;1747;48.884;9.160;2023-04-03T15:35:31;10.90;75.30
3466;DHT22;1747;48.884;9.160;2023-04-03T15:37:58;10.70;76.50
3466;DHT22;1747;48.884;9.160;2023-04-03T15:40:25;11.00;75.30
3466;DHT22;1747;48.884;9.160;2023-04-03T15:42:52;11.50;73.00
3466;DHT22;1747;48.884;9.160;2023-04-03T15:45:19;11.50;72.90
3466;DHT22;1747;48.884;9.160;2023-04-03T15:47:46;11.50;73.10
3466;DHT22;1747;48.884;9.160;2023-04-03T15:50:15;11.60;75.00
3466;DHT22;1747;48.884;9.160;2023-04-03T15:52:41;12.00;74.70
3466;DHT22;1747;48.884;9.160;2023-04-03T15:55:09;12.40;75.70
3466;DHT22;1747;48.884;9.160;2023-04-03T15:57:35;12.60;74.80
3466;DHT22;1747;48.884;9.160;2023-04-03T16:00:03;12.60;77.20
3466;DHT22;1747;48.884;9.160;2023-04-03T16:02:30;12.30;73.60
3466;DHT22;1747;48.884;9.160;2023-04-03T16:04:57;12.20;73.80
3466;DHT22;1747;48.884;9.160;2023-04-03T16:07:25;11.80;73.70
3466;DHT22;1747;48.884;9.160;2023-04-03T16:09:52;11.60;73.20
3466;DHT22;1747;48.884;9.160;2023-04-03T16:12:19;11.30;73.40
3466;DHT22;1747;48.884;9.160;2023-04-03T16:14:46;11.00;72.70
3466;DHT22;1747;48.884;9.160;2023-04-03T16:17:13;10.70;74.20
3466;DHT22;1747;48.884;9.160;2023-04-03T16:19:39;10.50;75.30
3466;DHT22;1747;48.884;9.160;2023-04-03T16:22:06;10.30;76.50
3466;DHT22;1747;48.884;9.160;2023-04-03T16:24:34;10.30;77.50
3466;DHT22;1747;48.884;9.160;2023-04-03T16:27:01;10.20;78.00
3466;DHT22;1747;48.884;9.160;2023-04-03T16:29:28;10.30;78.70
3466;DHT22;1747;48.884;9.160;2023-04-03T16:31:56;10.50;78.40
3466;DHT22;1747;48.884;9.160;2023-04-03T16:34:23;10.60;76.90
3466;DHT22;1747;48.884;9.160;2023-04-03T16:36:51;10.70;76.90
3466;DHT22;1747;48.884;9.160;2023-04-03T16:39:18;10.60;76.10
3466;DHT22;1747;48.884;9.160;2023-04-03T16:41:46;10.40;77.10